Time;durP1;ratioP1;P1;durP2;ratioP2;P2;SDS_P1;SDS_P2;PMS_P1;PMS_P2;Temp;Humidity;BMP_temperature;BMP_pressure;BME280_temperature;BME280_humidity;BME280_pressure;Samples;Min_cycle;Max_cycle;Signal;HPM_P1;HPM_P2
2021/03/11 00:05:50;;;;;;;4.45;3.53;;;;;;;;;;4568218;28;20133;-61
2021/03/11 00:08:16;;;;;;;5.53;4.07;;;;;;;;;;4203244;34;20209;-60
2021/03/11 00:10:42;;;;;;;6.15;4.37;;;;;;;;;;4197691;34;20122;-59
2021/03/11 00:13:08;;;;;;;5.68;3.62;;;;;;;;;;4178110;34;20101;-59
2021/03/11 00:15:35;;;;;;;7.95;4.12;;;;;;;;;;4190463;34;20529;-59
2021/03/11 00:18:01;;;;;;;6.15;4.00;;;;;;;;;;4190730;34;20132;-61
2021/03/11 00:20:27;;;;;;;4.78;3.62;;;;;;;;;;4190411;34;20137;-60
2021/03/11 00:22:53;;;;;;;5.07;3.70;;;;;;;;;;4190619;34;20549;-61
2021/03/11 00:25:21;;;;;;;4.78;3.55;;;;;;;;;;4190467;34;20152;-60
2021/03/11 00:27:47;;;;;;;4.65;3.78;;;;;;;;;;4190564;34;20461;-61
2021/03/11 00:30:14;;;;;;;5.30;3.72;;;;;;;;;;4190467;34;20189;-59
2021/03/11 00:32:40;;;;;;;9.25;4.18;;;;;;;;;;4190535;34;20126;-60
2021/03/11 00:35:07;;;;;;;5.55;3.62;;;;;;;;;;4191590;34;20489;-60
2021/03/11 00:37:33;;;;;;;7.12;4.22;;;;;;;;;;4192545;34;20122;-60
2021/03/11 00:39:59;;;;;;;5.80;3.75;;;;;;;;;;4192408;34;20466;-60
2021/03/11 00:42:26;;;;;;;6.82;4.20;;;;;;;;;;4180154;34;20110;-61
2021/03/11 00:44:52;;;;;;;7.00;3.97;;;;;;;;;;4179769;34;20192;-59
2021/03/11 00:47:18;;;;;;;5.60;4.05;;;;;;;;;;4192778;34;20567;-59
2021/03/11 00:49:44;;;;;;;4.62;3.60;;;;;;;;;;4179825;34;20130;-60
2021/03/11 00:52:12;;;;;;;5.18;3.83;;;;;;;;;;4192617;34;20101;-60
2021/03/11 00:54:38;;;;;;;5.70;4.30;;;;;;;;;;4192662;34;20141;-60
2021/03/11 00:57:04;;;;;;;5.03;4.00;;;;;;;;;;4179683;34;20213;-59
2021/03/11 00:59:30;;;;;;;7.00;4.78;;;;;;;;;;4192286;34;20191;-60
2021/03/11 01:01:56;;;;;;;6.87;4.00;;;;;;;;;;4192175;34;20646;-59
2021/03/11 01:04:22;;;;;;;5.85;4.40;;;;;;;;;;4192173;34;20147;-59
2021/03/11 01:06:47;;;;;;;5.45;3.95;;;;;;;;;;4179345;34;20190;-59
2021/03/11 01:09:14;;;;;;;4.28;3.87;;;;;;;;;;4192332;34;20102;-59
2021/03/11 01:11:39;;;;;;;5.60;3.55;;;;;;;;;;4192195;34;20117;-59
2021/03/11 01:14:05;;;;;;;6.28;4.15;;;;;;;;;;4179450;34;20106;-59
2021/03/11 01:16:31;;;;;;;5.35;4.37;;;;;;;;;;4192226;34;20105;-59
2021/03/11 01:18:57;;;;;;;6.70;4.80;;;;;;;;;;4192314;34;20534;-59
2021/03/11 01:21:23;;;;;;;5.12;4.07;;;;;;;;;;4192369;34;20137;-62
2021/03/11 01:23:49;;;;;;;5.62;4.60;;;;;;;;;;4179638;34;20482;-60
2021/03/11 01:26:15;;;;;;;5.75;4.43;;;;;;;;;;4192135;34;20137;-59
2021/03/11 01:28:41;;;;;;;6.55;4.53;;;;;;;;;;4192454;34;20443;-59
2021/03/11 01:31:07;;;;;;;6.05;4.82;;;;;;;;;;4191988;34;20129;-59
2021/03/11 01:33:33;;;;;;;8.10;5.90;;;;;;;;;;4192153;34;20106;-60
2021/03/11 01:35:58;;;;;;;9.35;6.65;;;;;;;;;;4192033;34;20196;-60
2021/03/11 01:38:24;;;;;;;7.50;5.60;;;;;;;;;;4192177;34;20131;-59
2021/03/11 01:40:50;;;;;;;7.75;5.62;;;;;;;;;;4192122;34;20208;-60
2021/03/11 01:43:16;;;;;;;6.18;3.78;;;;;;;;;;4179527;34;20145;-60
2021/03/11 01:45:42;;;;;;;5.82;3.78;;;;;;;;;;4178566;34;20124;-59
2021/03/11 01:48:08;;;;;;;5.20;3.72;;;;;;;;;;4192133;34;20094;-59
2021/03/11 01:50:34;;;;;;;4.00;3.08;;;;;;;;;;4192002;34;20105;-59
2021/03/11 01:53:00;;;;;;;4.60;4.15;;;;;;;;;;4179466;34;20125;-59
2021/03/11 01:55:27;;;;;;;4.32;3.70;;;;;;;;;;4167744;34;20133;-60
2021/03/11 01:57:53;;;;;;;3.47;3.17;;;;;;;;;;4179369;34;20130;-61
2021/03/11 02:00:19;;;;;;;4.22;3.83;;;;;;;;;;4179027;34;20568;-59
2021/03/11 02:02:45;;;;;;;4.85;3.70;;;;;;;;;;4191833;34;20165;-59
2021/03/11 02:05:13;;;;;;;6.32;3.75;;;;;;;;;;4179242;34;20315;-60
2021/03/11 02:07:39;;;;;;;6.57;3.95;;;;;;;;;;4191801;34;20098;-60
2021/03/11 02:10:05;;;;;;;5.22;3.70;;;;;;;;;;4190608;34;20091;-59
2021/03/11 02:13:02;;;;;;;6.37;4.07;;;;;;;;;;4181508;34;20098;-59
2021/03/11 02:15:34;;;;;;;5.32;3.60;;;;;;;;;;4170686;34;20102;-59
2021/03/11 02:18:13;;;;;;;7.07;4.00;;;;;;;;;;4179040;34;20098;-59
2021/03/11 02:20:42;;;;;;;8.15;3.97;;;;;;;;;;4191549;34;20189;-60
2021/03/11 02:23:16;;;;;;;7.05;4.15;;;;;;;;;;4192080;34;20090;-59
2021/03/11 02:25:45;;;;;;;7.45;4.20;;;;;;;;;;4178831;34;20110;-60
2021/03/11 02:28:12;;;;;;;12.45;6.32;;;;;;;;;;4191993;34;20101;-59
2021/03/11 02:30:39;;;;;;;14.65;6.40;;;;;;;;;;4191662;34;20137;-59
2021/03/11 02:33:06;;;;;;;14.57;6.62;;;;;;;;;;4191595;34;20129;-60
2021/03/11 02:35:32;;;;;;;16.45;8.52;;;;;;;;;;4167700;34;20230;-58
2021/03/11 02:37:58;;;;;;;14.60;7.30;;;;;;;;;;4167569;34;20130;-60
2021/03/11 02:40:28;;;;;;;12.88;7.10;;;;;;;;;;4178648;34;20130;-59
2021/03/11 02:42:54;;;;;;;9.23;5.62;;;;;;;;;;4167748;34;20621;-59
2021/03/11 02:45:22;;;;;;;8.95;6.68;;;;;;;;;;4178935;34;20426;-60
2021/03/11 02:47:48;;;;;;;8.52;6.30;;;;;;;;;;4178969;34;20109;-61
2021/03/11 02:50:13;;;;;;;15.75;6.45;;;;;;;;;;4191437;34;20544;-59
2021/03/11 02:52:40;;;;;;;11.82;6.55;;;;;;;;;;4167367;34;20133;-60
2021/03/11 02:55:06;;;;;;;7.65;5.10;;;;;;;;;;4167162;34;20541;-60
2021/03/11 02:57:32;;;;;;;11.15;5.25;;;;;;;;;;4167416;34;20443;-61
2021/03/11 02:59:58;;;;;;;9.45;5.43;;;;;;;;;;4167132;34;20218;-60
2021/03/11 03:02:25;;;;;;;11.00;5.12;;;;;;;;;;4156264;34;20138;-62
2021/03/11 03:04:55;;;;;;;7.70;4.90;;;;;;;;;;4166978;34;20543;-61
2021/03/11 03:07:20;;;;;;;6.70;5.07;;;;;;;;;;4167484;34;20118;-59
2021/03/11 03:09:47;;;;;;;7.37;5.60;;;;;;;;;;4167352;34;20166;-59
2021/03/11 03:12:14;;;;;;;8.15;5.18;;;;;;;;;;4178746;34;20082;-60
2021/03/11 03:14:43;;;;;;;8.80;6.40;;;;;;;;;;4189809;34;20141;-61
2021/03/11 03:17:09;;;;;;;9.48;6.37;;;;;;;;;;4167413;34;20121;-61
2021/03/11 03:19:37;;;;;;;10.10;5.37;;;;;;;;;;4166807;34;20145;-59
2021/03/11 03:22:03;;;;;;;13.60;6.70;;;;;;;;;;4176662;34;20210;-60
2021/03/11 03:24:29;;;;;;;10.95;5.82;;;;;;;;;;4178249;34;20137;-60
2021/03/11 03:26:55;;;;;;;9.40;5.68;;;;;;;;;;4178515;34;20145;-62
2021/03/11 03:29:21;;;;;;;10.10;5.15;;;;;;;;;;4178363;34;20107;-61
2021/03/11 03:31:47;;;;;;;7.37;4.93;;;;;;;;;;4165792;34;20246;-61
2021/03/11 03:34:13;;;;;;;9.02;5.43;;;;;;;;;;4190457;34;20110;-61
2021/03/11 03:36:39;;;;;;;10.02;5.72;;;;;;;;;;4178056;34;20502;-62
2021/03/11 03:39:05;;;;;;;9.68;4.85;;;;;;;;;;4190149;34;20145;-62
2021/03/11 03:41:31;;;;;;;8.98;4.75;;;;;;;;;;4178115;34;20228;-62
2021/03/11 03:43:56;;;;;;;10.13;4.40;;;;;;;;;;4178106;34;20117;-60
2021/03/11 03:46:23;;;;;;;14.25;4.97;;;;;;;;;;4166853;34;20149;-60
2021/03/11 03:48:54;;;;;;;10.63;5.35;;;;;;;;;;4166871;34;20109;-59
2021/03/11 03:51:24;;;;;;;10.13;5.60;;;;;;;;;;4178520;34;20094;-59
2021/03/11 03:53:59;;;;;;;11.15;6.47;;;;;;;;;;4178296;34;20104;-59
2021/03/11 03:56:29;;;;;;;15.40;6.15;;;;;;;;;;4166929;34;20156;-59
2021/03/11 03:59:08;;;;;;;15.43;6.30;;;;;;;;;;4177929;34;20102;-59
2021/03/11 04:01:36;;;;;;;7.80;5.18;;;;;;;;;;4190787;34;20117;-59
2021/03/11 04:04:03;;;;;;;13.68;5.90;;;;;;;;;;4167024;34;20142;-59
2021/03/11 04:06:29;;;;;;;9.80;6.82;;;;;;;;;;4190425;34;20102;-58
2021/03/11 04:08:55;;;;;;;16.08;7.60;;;;;;;;;;4177483;34;20525;-58
2021/03/11 04:11:21;;;;;;;14.38;7.05;;;;;;;;;;4177955;34;20118;-60
2021/03/11 04:13:47;;;;;;;12.70;7.00;;;;;;;;;;4166648;34;20137;-58
2021/03/11 04:16:17;;;;;;;12.93;7.55;;;;;;;;;;4177965;34;20129;-60
2021/03/11 04:18:43;;;;;;;11.38;7.35;;;;;;;;;;4178326;34;20118;-60
2021/03/11 04:21:09;;;;;;;14.43;8.10;;;;;;;;;;4166496;34;20126;-60
2021/03/11 04:23:35;;;;;;;10.38;7.05;;;;;;;;;;4166525;34;20647;-60
2021/03/11 04:26:02;;;;;;;9.63;7.05;;;;;;;;;;4166508;34;20553;-60
2021/03/11 04:28:28;;;;;;;10.38;8.05;;;;;;;;;;4177771;34;20098;-59
2021/03/11 04:30:54;;;;;;;14.20;8.23;;;;;;;;;;4166353;34;20459;-60
2021/03/11 04:33:20;;;;;;;13.88;8.60;;;;;;;;;;4190523;34;20568;-60
2021/03/11 04:35:46;;;;;;;15.43;8.55;;;;;;;;;;4166283;34;20140;-59
2021/03/11 04:38:14;;;;;;;15.50;9.07;;;;;;;;;;4177648;34;20114;-60
2021/03/11 04:40:40;;;;;;;20.17;9.70;;;;;;;;;;4166367;34;20094;-60
2021/03/11 04:43:05;;;;;;;18.58;8.82;;;;;;;;;;4166602;34;20273;-60
2021/03/11 04:45:31;;;;;;;15.18;10.27;;;;;;;;;;4189017;34;20110;-60
2021/03/11 04:47:58;;;;;;;15.10;9.80;;;;;;;;;;4177639;34;20198;-60
2021/03/11 04:50:24;;;;;;;26.20;10.75;;;;;;;;;;4166007;34;20202;-61
2021/03/11 04:52:50;;;;;;;17.55;10.98;;;;;;;;;;4177871;34;20137;-60
2021/03/11 04:55:16;;;;;;;20.55;10.65;;;;;;;;;;4166415;34;20130;-61
2021/03/11 04:57:42;;;;;;;30.35;12.32;;;;;;;;;;4166175;34;20114;-60
2021/03/11 05:00:08;;;;;;;23.05;9.77;;;;;;;;;;4166103;34;20126;-61
2021/03/11 05:02:34;;;;;;;22.70;9.60;;;;;;;;;;4166131;34;20201;-61
2021/03/11 05:05:02;;;;;;;22.37;9.40;;;;;;;;;;4166074;34;20129;-60
2021/03/11 05:07:28;;;;;;;25.52;10.43;;;;;;;;;;4190094;34;20120;-60
2021/03/11 05:09:54;;;;;;;14.95;8.15;;;;;;;;;;4190034;34;20141;-60
2021/03/11 05:12:20;;;;;;;17.92;9.15;;;;;;;;;;4190151;34;20211;-60
2021/03/11 05:14:46;;;;;;;14.48;8.10;;;;;;;;;;4165936;34;20117;-60
2021/03/11 05:17:11;;;;;;;15.73;8.15;;;;;;;;;;4190040;34;20106;-61
2021/03/11 05:19:37;;;;;;;16.48;8.43;;;;;;;;;;4189674;34;20103;-61
2021/03/11 05:22:03;;;;;;;17.40;8.77;;;;;;;;;;4192294;34;20533;-60
2021/03/11 05:24:29;;;;;;;14.32;9.07;;;;;;;;;;4179356;34;20146;-61
2021/03/11 05:26:55;;;;;;;17.40;10.05;;;;;;;;;;4160784;34;20135;-61
2021/03/11 05:29:21;;;;;;;18.12;9.52;;;;;;;;;;4191388;34;20816;-62
2021/03/11 05:31:47;;;;;;;16.10;8.52;;;;;;;;;;4188468;34;20117;-63
2021/03/11 05:34:12;;;;;;;11.77;7.32;;;;;;;;;;4191106;34;20114;-61
2021/03/11 05:36:39;;;;;;;11.12;5.97;;;;;;;;;;4191572;34;20101;-61
2021/03/11 05:39:05;;;;;;;11.30;5.37;;;;;;;;;;4191710;34;20121;-60
2021/03/11 05:41:34;;;;;;;10.90;5.82;;;;;;;;;;4191651;34;20190;-61
2021/03/11 05:43:59;;;;;;;7.65;4.90;;;;;;;;;;4178942;34;20587;-60
2021/03/11 05:46:25;;;;;;;8.18;5.70;;;;;;;;;;4191641;34;20218;-61
2021/03/11 05:48:51;;;;;;;10.77;6.00;;;;;;;;;;4178753;34;20122;-60
2021/03/11 05:51:17;;;;;;;10.68;5.90;;;;;;;;;;4186777;34;20194;-61
2021/03/11 05:53:43;;;;;;;10.45;6.80;;;;;;;;;;4174491;34;20130;-61
2021/03/11 05:56:09;;;;;;;14.07;7.82;;;;;;;;;;4191147;34;20132;-61
2021/03/11 05:58:35;;;;;;;12.93;7.12;;;;;;;;;;4191796;34;20672;-62
2021/03/11 06:01:02;;;;;;;19.52;9.50;;;;;;;;;;4189554;34;20213;-60
2021/03/11 06:03:31;;;;;;;14.05;7.10;;;;;;;;;;4190466;34;20125;-61
2021/03/11 06:05:57;;;;;;;12.90;7.82;;;;;;;;;;4189591;34;20134;-63
2021/03/11 06:08:23;;;;;;;14.40;7.50;;;;;;;;;;4171438;34;20440;-65
2021/03/11 06:10:56;;;;;;;8.18;5.28;;;;;;;;;;4189270;34;20136;-63
2021/03/11 06:13:25;;;;;;;8.70;5.82;;;;;;;;;;4177119;34;20403;-64
2021/03/11 06:15:59;;;;;;;11.23;5.53;;;;;;;;;;4188100;34;20193;-64
2021/03/11 06:18:25;;;;;;;16.35;8.63;;;;;;;;;;4176902;34;20106;-63
2021/03/11 06:20:51;;;;;;;15.65;8.63;;;;;;;;;;4166237;34;20133;-62
2021/03/11 06:23:17;;;;;;;17.67;8.80;;;;;;;;;;4190552;34;20464;-61
2021/03/11 06:25:43;;;;;;;19.62;10.65;;;;;;;;;;4167416;34;20572;-63
2021/03/11 06:28:09;;;;;;;23.87;9.20;;;;;;;;;;4177925;34;20113;-63
2021/03/11 06:30:35;;;;;;;17.02;7.60;;;;;;;;;;4191508;34;20136;-63
2021/03/11 06:33:03;;;;;;;13.02;7.12;;;;;;;;;;4178414;34;20144;-63
2021/03/11 06:35:29;;;;;;;13.32;6.40;;;;;;;;;;4191445;34;20097;-61
2021/03/11 06:37:55;;;;;;;12.63;5.70;;;;;;;;;;4178758;34;20170;-64
2021/03/11 06:40:28;;;;;;;13.05;5.70;;;;;;;;;;4191334;34;20173;-63
2021/03/11 06:43:13;;;;;;;15.60;5.90;;;;;;;;;;4191615;34;20098;-61
2021/03/11 06:45:39;;;;;;;21.77;7.60;;;;;;;;;;4191546;34;20129;-62
2021/03/11 06:48:25;;;;;;;17.27;7.53;;;;;;;;;;4191497;34;20451;-62
2021/03/11 06:50:57;;;;;;;20.37;8.15;;;;;;;;;;4191625;34;20137;-62
2021/03/11 06:53:23;;;;;;;13.15;6.85;;;;;;;;;;4178740;34;20270;-62
2021/03/11 06:55:49;;;;;;;14.87;6.87;;;;;;;;;;4191333;34;20228;-63
2021/03/11 06:58:15;;;;;;;13.77;6.18;;;;;;;;;;4178734;34;20201;-62
2021/03/11 07:00:42;;;;;;;22.70;6.65;;;;;;;;;;4191156;34;20110;-63
2021/03/11 07:03:08;;;;;;;19.15;6.45;;;;;;;;;;4191318;34;20554;-61
2021/03/11 07:05:39;;;;;;;17.62;5.93;;;;;;;;;;4191031;34;20144;-63
2021/03/11 07:08:09;;;;;;;18.30;5.87;;;;;;;;;;4178865;34;20086;-61
2021/03/11 07:10:36;;;;;;;10.57;5.65;;;;;;;;;;4191251;34;20109;-62
2021/03/11 07:13:02;;;;;;;12.18;8.05;;;;;;;;;;4191431;34;20535;-61
2021/03/11 07:15:30;;;;;;;16.27;9.02;;;;;;;;;;4191080;34;20213;-62
2021/03/11 07:17:56;;;;;;;19.17;9.93;;;;;;;;;;4191223;34;20235;-60
2021/03/11 07:20:24;;;;;;;25.50;12.85;;;;;;;;;;4178374;34;20204;-57
2021/03/11 07:23:06;;;;;;;19.15;11.55;;;;;;;;;;4191477;34;20090;-58
2021/03/11 07:25:36;;;;;;;21.75;10.48;;;;;;;;;;4191171;34;20101;-60
2021/03/11 07:28:03;;;;;;;7.47;4.47;;;;;;;;;;4191475;34;20446;-59
2021/03/11 07:30:30;;;;;;;11.85;5.40;;;;;;;;;;4190958;34;20458;-58
2021/03/11 07:33:01;;;;;;;9.40;5.15;;;;;;;;;;4191448;34;20145;-61
2021/03/11 07:35:28;;;;;;;7.43;4.00;;;;;;;;;;4191245;34;20151;-59
2021/03/11 07:37:57;;;;;;;7.20;4.45;;;;;;;;;;4191201;34;20546;-60
2021/03/11 07:40:24;;;;;;;10.05;5.07;;;;;;;;;;4190941;34;20221;-60
2021/03/11 07:42:50;;;;;;;10.18;4.95;;;;;;;;;;4191007;34;20118;-59
2021/03/11 07:45:16;;;;;;;6.87;4.35;;;;;;;;;;4177306;34;20108;-59
2021/03/11 07:47:42;;;;;;;7.45;3.75;;;;;;;;;;4191123;34;20122;-58
2021/03/11 07:50:10;;;;;;;8.25;4.45;;;;;;;;;;4191028;34;20117;-59
2021/03/11 07:52:37;;;;;;;6.82;4.10;;;;;;;;;;4191183;34;20106;-59
2021/03/11 07:55:05;;;;;;;10.75;5.43;;;;;;;;;;4191003;34;20126;-61
2021/03/11 07:57:32;;;;;;;11.50;5.22;;;;;;;;;;4190920;34;20186;-60
2021/03/11 07:59:58;;;;;;;12.98;4.82;;;;;;;;;;4178342;34;20138;-59
2021/03/11 08:02:24;;;;;;;13.75;5.20;;;;;;;;;;4178135;34;20282;-60
2021/03/11 08:04:50;;;;;;;11.63;4.47;;;;;;;;;;4166479;34;20110;-61
2021/03/11 08:07:25;;;;;;;10.07;4.30;;;;;;;;;;4190997;34;20158;-61
2021/03/11 08:09:52;;;;;;;8.63;4.30;;;;;;;;;;4190907;34;20098;-61
2021/03/11 08:12:27;;;;;;;13.60;5.57;;;;;;;;;;4190602;34;20110;-60
2021/03/11 08:14:57;;;;;;;4.65;3.70;;;;;;;;;;4190574;34;20181;-61
2021/03/11 08:17:56;;;;;;;8.85;4.78;;;;;;;;;;4177835;34;20125;-62
2021/03/11 08:20:24;;;;;;;7.00;4.95;;;;;;;;;;4167165;34;20106;-61
2021/03/11 08:22:56;;;;;;;8.38;5.55;;;;;;;;;;4190495;34;20219;-60
2021/03/11 08:25:25;;;;;;;14.27;7.10;;;;;;;;;;4190413;34;20181;-60
2021/03/11 08:27:52;;;;;;;16.75;5.90;;;;;;;;;;4190839;34;20450;-61
2021/03/11 08:30:39;;;;;;;17.52;6.68;;;;;;;;;;4190215;34;20164;-61
2021/03/11 08:33:13;;;;;;;11.15;5.80;;;;;;;;;;4190388;34;20130;-60
2021/03/11 08:35:43;;;;;;;14.65;5.18;;;;;;;;;;4190283;34;20160;-60
2021/03/11 08:38:21;;;;;;;10.80;5.70;;;;;;;;;;4190556;34;20439;-59
2021/03/11 08:40:56;;;;;;;7.35;4.93;;;;;;;;;;4190221;34;20121;-58
2021/03/11 08:43:37;;;;;;;9.10;4.45;;;;;;;;;;4190489;34;20115;-62
2021/03/11 08:46:04;;;;;;;11.90;4.47;;;;;;;;;;4190211;34;20094;-61
2021/03/11 08:48:42;;;;;;;8.55;4.62;;;;;;;;;;4190394;34;20121;-60
2021/03/11 08:51:10;;;;;;;6.50;4.12;;;;;;;;;;4190493;34;20106;-60
2021/03/11 08:53:35;;;;;;;6.37;4.18;;;;;;;;;;4190511;34;20128;-60
2021/03/11 08:56:21;;;;;;;8.20;4.20;;;;;;;;;;4191287;34;20547;-60
2021/03/11 08:58:51;;;;;;;5.65;4.07;;;;;;;;;;4191503;34;20144;-60
2021/03/11 09:01:31;;;;;;;6.12;3.83;;;;;;;;;;4192462;34;20434;-60
2021/03/11 09:03:58;;;;;;;5.35;3.58;;;;;;;;;;4192305;34;20098;-59
2021/03/11 09:06:55;;;;;;;8.45;4.12;;;;;;;;;;4192015;34;20134;-61
2021/03/11 09:09:45;;;;;;;8.98;3.90;;;;;;;;;;4192496;34;20540;-59
2021/03/11 09:12:12;;;;;;;9.55;3.80;;;;;;;;;;4192335;34;20102;-60
2021/03/11 09:14:39;;;;;;;5.35;3.40;;;;;;;;;;4192452;34;20225;-61
2021/03/11 09:17:16;;;;;;;9.60;3.92;;;;;;;;;;4192355;34;20126;-60
2021/03/11 09:19:44;;;;;;;8.50;4.18;;;;;;;;;;4192135;34;20541;-60
2021/03/11 09:22:20;;;;;;;4.90;3.40;;;;;;;;;;4192211;34;20116;-60
2021/03/11 09:25:14;;;;;;;4.97;3.72;;;;;;;;;;4192124;34;20113;-59
2021/03/11 09:27:59;;;;;;;8.82;4.07;;;;;;;;;;4192329;34;20190;-59
2021/03/11 09:30:37;;;;;;;6.10;4.10;;;;;;;;;;4192087;34;20118;-63
2021/03/11 09:33:17;;;;;;;7.12;4.20;;;;;;;;;;4191010;34;20128;-61
2021/03/11 09:35:43;;;;;;;10.48;4.18;;;;;;;;;;4192124;34;20109;-62
2021/03/11 09:38:11;;;;;;;7.12;3.92;;;;;;;;;;4192368;34;20121;-61
2021/03/11 09:40:44;;;;;;;6.72;3.95;;;;;;;;;;4191890;34;20113;-63
2021/03/11 09:43:20;;;;;;;7.70;3.97;;;;;;;;;;4192042;34;20102;-62
2021/03/11 09:45:51;;;;;;;8.25;3.90;;;;;;;;;;4179179;34;20566;-63
2021/03/11 09:48:23;;;;;;;5.10;4.10;;;;;;;;;;4188822;34;20450;-64
2021/03/11 09:51:15;;;;;;;11.82;4.45;;;;;;;;;;4191843;34;20113;-62
2021/03/11 09:53:41;;;;;;;8.63;4.10;;;;;;;;;;4179899;34;20205;-62
2021/03/11 09:56:22;;;;;;;8.45;4.90;;;;;;;;;;4191786;34;20125;-60
2021/03/11 09:58:49;;;;;;;6.28;4.18;;;;;;;;;;4190382;34;20522;-62
2021/03/11 10:01:22;;;;;;;8.73;4.22;;;;;;;;;;4178927;34;20118;-60
2021/03/11 10:03:48;;;;;;;7.95;3.90;;;;;;;;;;4192000;34;20705;-61
2021/03/11 10:06:14;;;;;;;9.48;4.35;;;;;;;;;;4178684;34;20150;-62
2021/03/11 10:08:41;;;;;;;7.40;3.83;;;;;;;;;;4191294;34;20114;-60
2021/03/11 10:11:12;;;;;;;8.27;3.90;;;;;;;;;;4178967;34;20122;-60
2021/03/11 10:13:48;;;;;;;9.02;4.30;;;;;;;;;;4191893;34;20511;-61
2021/03/11 10:16:32;;;;;;;7.00;3.78;;;;;;;;;;4179964;34;20124;-61
2021/03/11 10:19:03;;;;;;;10.30;4.93;;;;;;;;;;4191603;34;20456;-61
2021/03/11 10:21:29;;;;;;;9.15;4.50;;;;;;;;;;4191521;34;20462;-59
2021/03/11 10:23:55;;;;;;;8.77;4.20;;;;;;;;;;4191471;34;20136;-60
2021/03/11 10:26:26;;;;;;;8.43;4.10;;;;;;;;;;4191574;34;20126;-59
2021/03/11 10:29:04;;;;;;;10.60;4.65;;;;;;;;;;4191542;34;20454;-62
2021/03/11 10:31:30;;;;;;;5.15;3.95;;;;;;;;;;4179656;34;20129;-62
2021/03/11 10:34:08;;;;;;;5.03;3.37;;;;;;;;;;4191554;34;20118;-61
2021/03/11 10:36:35;;;;;;;4.43;3.12;;;;;;;;;;4178944;34;20106;-61
2021/03/11 10:39:08;;;;;;;8.60;3.87;;;;;;;;;;4191679;34;20095;-61
2021/03/11 10:41:35;;;;;;;8.20;4.20;;;;;;;;;;4191381;34;20533;-61
2021/03/11 10:44:11;;;;;;;5.78;3.60;;;;;;;;;;4191756;34;20114;-60
2021/03/11 10:46:37;;;;;;;;;;;;;;;;;;4191814;34;20133;-59
2021/03/11 10:49:03;;;;;;;8.73;3.92;;;;;;;;;;4191157;34;20018;-61
2021/03/11 10:51:31;;;;;;;4.78;3.50;;;;;;;;;;4191001;34;20121;-60
2021/03/11 10:53:59;;;;;;;8.57;4.30;;;;;;;;;;4191276;34;20130;-59
2021/03/11 10:56:26;;;;;;;4.37;3.15;;;;;;;;;;4191251;34;20225;-62
2021/03/11 10:59:04;;;;;;;4.65;3.15;;;;;;;;;;4189931;34;20101;-60
2021/03/11 11:01:30;;;;;;;13.00;4.18;;;;;;;;;;4191451;34;20129;-60
2021/03/11 11:03:56;;;;;;;8.07;3.47;;;;;;;;;;4191282;34;20113;-60
2021/03/11 11:06:23;;;;;;;4.25;3.25;;;;;;;;;;4178395;34;20134;-60
2021/03/11 11:08:49;;;;;;;5.47;3.40;;;;;;;;;;4191214;34;20480;-60
2021/03/11 11:11:15;;;;;;;4.60;3.40;;;;;;;;;;4191152;34;20185;-57
2021/03/11 11:13:42;;;;;;;4.95;3.30;;;;;;;;;;4191500;34;20101;-57
2021/03/11 11:16:09;;;;;;;6.60;3.83;;;;;;;;;;4191063;34;20158;-59
2021/03/11 11:18:35;;;;;;;4.70;3.22;;;;;;;;;;4178520;34;20185;-59
2021/03/11 11:21:01;;;;;;;8.32;3.20;;;;;;;;;;4191038;34;20144;-58
2021/03/11 11:23:27;;;;;;;7.47;4.37;;;;;;;;;;4191161;34;20122;-59
2021/03/11 11:25:53;;;;;;;4.87;2.90;;;;;;;;;;4191220;34;20172;-58
2021/03/11 11:28:19;;;;;;;7.68;3.67;;;;;;;;;;4191492;34;20535;-58
2021/03/11 11:30:44;;;;;;;5.30;3.30;;;;;;;;;;4190955;34;20128;-58
2021/03/11 11:33:10;;;;;;;4.60;3.08;;;;;;;;;;4191318;34;20521;-60
2021/03/11 11:35:36;;;;;;;12.68;3.53;;;;;;;;;;4191002;34;20205;-60
2021/03/11 11:38:02;;;;;;;6.03;3.80;;;;;;;;;;4191089;34;20629;-60
2021/03/11 11:40:30;;;;;;;6.87;3.45;;;;;;;;;;4190778;34;20140;-59
2021/03/11 11:42:57;;;;;;;4.10;2.90;;;;;;;;;;4191269;34;20116;-59
2021/03/11 11:45:23;;;;;;;5.60;2.87;;;;;;;;;;4190935;34;20271;-64
2021/03/11 11:47:50;;;;;;;5.72;3.75;;;;;;;;;;4178180;34;20511;-63
2021/03/11 11:50:16;;;;;;;4.72;3.30;;;;;;;;;;4190958;34;20210;-63
2021/03/11 11:52:42;;;;;;;9.65;4.00;;;;;;;;;;4190854;34;20105;-62
2021/03/11 11:55:12;;;;;;;6.12;3.25;;;;;;;;;;4190804;34;20106;-60
2021/03/11 11:57:39;;;;;;;4.43;3.12;;;;;;;;;;4190864;34;20114;-59
2021/03/11 12:00:06;;;;;;;4.65;3.28;;;;;;;;;;4177725;34;20122;-59
2021/03/11 12:02:32;;;;;;;4.25;3.50;;;;;;;;;;4189617;34;20125;-59
2021/03/11 12:04:58;;;;;;;4.80;3.42;;;;;;;;;;4190794;34;20125;-62
2021/03/11 12:07:24;;;;;;;4.60;3.30;;;;;;;;;;4190908;34;20521;-62
2021/03/11 12:09:49;;;;;;;3.85;2.90;;;;;;;;;;4190624;34;20498;-61
2021/03/11 12:12:15;;;;;;;6.03;3.22;;;;;;;;;;4190711;34;20229;-57
2021/03/11 12:14:42;;;;;;;5.03;3.70;;;;;;;;;;4190765;34;20131;-58
2021/03/11 12:17:08;;;;;;;5.37;3.80;;;;;;;;;;4190654;34;20113;-59
2021/03/11 12:19:34;;;;;;;5.28;3.58;;;;;;;;;;4190770;34;20117;-58
2021/03/11 12:22:00;;;;;;;7.18;3.40;;;;;;;;;;4190795;34;20129;-59
2021/03/11 12:24:26;;;;;;;5.87;3.65;;;;;;;;;;4189131;34;20102;-59
2021/03/11 12:26:52;;;;;;;4.72;3.92;;;;;;;;;;4190767;34;20102;-59
2021/03/11 12:29:18;;;;;;;14.95;3.72;;;;;;;;;;4190623;34;20633;-58
2021/03/11 12:31:45;;;;;;;5.80;3.67;;;;;;;;;;4192028;34;20142;-59
2021/03/11 12:34:11;;;;;;;8.40;3.97;;;;;;;;;;4192605;34;20094;-58
2021/03/11 12:36:37;;;;;;;6.15;4.07;;;;;;;;;;4192723;34;20206;-57
2021/03/11 12:39:04;;;;;;;5.20;3.45;;;;;;;;;;4192490;34;20128;-60
2021/03/11 12:41:31;;;;;;;7.03;3.50;;;;;;;;;;4192648;34;20225;-60
2021/03/11 12:43:56;;;;;;;8.88;4.37;;;;;;;;;;4192401;34;20130;-60
2021/03/11 12:46:22;;;;;;;5.85;4.18;;;;;;;;;;4192304;34;20232;-60
2021/03/11 12:48:48;;;;;;;7.12;4.22;;;;;;;;;;4192404;34;20202;-58
2021/03/11 12:51:14;;;;;;;7.03;4.35;;;;;;;;;;4192590;34;20092;-58
2021/03/11 12:53:40;;;;;;;9.10;4.20;;;;;;;;;;4187099;34;20109;-58
2021/03/11 12:56:06;;;;;;;6.65;4.37;;;;;;;;;;4191087;34;20113;-59
2021/03/11 12:58:32;;;;;;;8.65;4.35;;;;;;;;;;4191712;34;20100;-59
2021/03/11 13:00:58;;;;;;;8.65;4.60;;;;;;;;;;4190366;34;20094;-59
2021/03/11 13:03:24;;;;;;;6.95;4.50;;;;;;;;;;4192151;34;20115;-60
2021/03/11 13:05:50;;;;;;;8.55;4.25;;;;;;;;;;4192105;34;20117;-59
2021/03/11 13:08:16;;;;;;;9.38;4.57;;;;;;;;;;4191972;34;20226;-59
2021/03/11 13:10:42;;;;;;;7.05;4.57;;;;;;;;;;4192056;34;20393;-59
2021/03/11 13:13:08;;;;;;;8.27;4.87;;;;;;;;;;4191935;34;20130;-59
2021/03/11 13:15:34;;;;;;;6.18;4.40;;;;;;;;;;4191857;34;20214;-59
2021/03/11 13:18:00;;;;;;;5.97;3.72;;;;;;;;;;4192227;34;20117;-57
2021/03/11 13:20:26;;;;;;;5.87;3.72;;;;;;;;;;4192081;34;20198;-59
2021/03/11 13:22:54;;;;;;;6.15;3.92;;;;;;;;;;4191925;34;20598;-59
2021/03/11 13:25:20;;;;;;;7.57;4.25;;;;;;;;;;4191822;34;20446;-59
2021/03/11 13:27:46;;;;;;;9.02;3.95;;;;;;;;;;4191798;34;20102;-59
2021/03/11 13:30:12;;;;;;;9.82;4.47;;;;;;;;;;4191895;34;20230;-59
2021/03/11 13:32:38;;;;;;;11.07;4.30;;;;;;;;;;4191618;34;20090;-59
2021/03/11 13:35:05;;;;;;;6.78;3.92;;;;;;;;;;4191985;34;20298;-59
2021/03/11 13:37:31;;;;;;;8.15;4.10;;;;;;;;;;4191583;34;20125;-59
2021/03/11 13:39:57;;;;;;;6.93;4.40;;;;;;;;;;4191740;34;20118;-60
2021/03/11 13:42:23;;;;;;;9.30;4.20;;;;;;;;;;4190931;34;20122;-59
2021/03/11 13:44:49;;;;;;;9.95;4.60;;;;;;;;;;4192148;34;20181;-59
2021/03/11 13:47:16;;;;;;;8.60;4.78;;;;;;;;;;4191764;34;20104;-59
2021/03/11 13:49:42;;;;;;;8.15;5.28;;;;;;;;;;4191438;34;20102;-59
2021/03/11 13:52:08;;;;;;;9.95;5.35;;;;;;;;;;4189034;34;20117;-59
2021/03/11 13:54:35;;;;;;;8.95;5.70;;;;;;;;;;4184026;34;20465;-59
2021/03/11 13:57:01;;;;;;;9.98;6.25;;;;;;;;;;4191682;34;20567;-59
2021/03/11 13:59:27;;;;;;;9.38;7.35;;;;;;;;;;4177928;34;20094;-60
2021/03/11 14:01:52;;;;;;;8.98;6.22;;;;;;;;;;4177619;34;20103;-60
2021/03/11 14:04:18;;;;;;;8.70;5.93;;;;;;;;;;4177926;34;20098;-59
2021/03/11 14:06:44;;;;;;;7.37;5.75;;;;;;;;;;4177913;34;20110;-59
2021/03/11 14:09:10;;;;;;;7.37;5.70;;;;;;;;;;4190098;34;20145;-60
2021/03/11 14:11:36;;;;;;;6.80;4.87;;;;;;;;;;4191507;34;20210;-59
2021/03/11 14:14:02;;;;;;;6.07;5.05;;;;;;;;;;4191350;34;20133;-59
2021/03/11 14:16:28;;;;;;;6.93;4.97;;;;;;;;;;4191717;34;20336;-59
2021/03/11 14:18:54;;;;;;;7.10;5.10;;;;;;;;;;4178788;34;20522;-59
2021/03/11 14:21:20;;;;;;;10.65;6.10;;;;;;;;;;4191776;34;20502;-60
2021/03/11 14:23:46;;;;;;;10.55;6.12;;;;;;;;;;4179041;34;20110;-60
2021/03/11 14:26:12;;;;;;;8.60;5.47;;;;;;;;;;4191307;34;20098;-59
2021/03/11 14:28:38;;;;;;;9.35;6.28;;;;;;;;;;4178808;34;20109;-60
2021/03/11 14:31:04;;;;;;;7.75;5.45;;;;;;;;;;4191299;34;20098;-60
2021/03/11 14:33:30;;;;;;;6.60;5.87;;;;;;;;;;4191500;34;20112;-59
2021/03/11 14:35:56;;;;;;;7.47;5.60;;;;;;;;;;4191587;34;20137;-60
2021/03/11 14:38:22;;;;;;;7.65;5.62;;;;;;;;;;4191155;34;20122;-60
2021/03/11 14:40:48;;;;;;;6.53;5.15;;;;;;;;;;4191108;34;20125;-60
2021/03/11 14:43:14;;;;;;;10.18;6.20;;;;;;;;;;4191672;34;20118;-60
2021/03/11 14:45:40;;;;;;;9.35;6.62;;;;;;;;;;4191600;34;20194;-59
2021/03/11 14:48:06;;;;;;;8.95;7.45;;;;;;;;;;4191624;34;20505;-60